Witmer Manor, Indiana
Current Conditions -  °F | °C
As of 1:35 PM on Friday 19 Dec 2014 (Local Time) from KANQ Reporting Station
Overcast Overcast  
Wind Chill: 28°   Ceiling: 1600
Heat Index: 28°   Visibility: 10mi
Dew Point: 18°   Wind: 0mph
Humidity: 64%   Direction: NA
Pressure: 30.24"   Gusts: NA
Location:  41.5677°N, 85.3125°W
Report Text: KANQ 191835Z AUTO 00000KT 10SM OVC016 M02/M08 A3024 RMK
Loading
Personal Weather Stations






























Interactive Weather Map New forecast layout! Learn more

10-Day Weather Forecast

Advertisements
Track Severe Weather on mobile